Time;durP1;ratioP1;P1;durP2;ratioP2;P2;SDS_P1;SDS_P2;PMS_P1;PMS_P2;Temp;Humidity;BMP_temperature;BMP_pressure;BME280_temperature;BME280_humidity;BME280_pressure;Samples;Min_cycle;Max_cycle;Signal;HPM_P1;HPM_P2
2021/12/31 00:02:13;;;;;;;6.63;4.57;;;10.80;99.90;;;;;;5094242;28;20289;-78
2021/12/31 00:04:40;;;;;;;8.50;3.90;;;10.90;99.90;;;;;;5094252;28;20196;-77
2021/12/31 00:07:07;;;;;;;7.40;4.43;;;10.90;99.90;;;;;;5092811;28;20202;-78
2021/12/31 00:09:34;;;;;;;5.87;4.10;;;10.80;99.90;;;;;;5093511;28;20193;-77
2021/12/31 00:12:02;;;;;;;7.73;4.50;;;10.80;99.90;;;;;;5093791;28;20239;-77
2021/12/31 00:14:31;;;;;;;7.47;4.93;;;10.80;99.90;;;;;;5094051;28;20308;-78
2021/12/31 00:16:58;;;;;;;6.63;4.63;;;10.80;99.90;;;;;;5093694;28;20197;-77
2021/12/31 00:19:29;;;;;;;6.47;5.17;;;10.80;99.90;;;;;;5093608;28;20657;-78
2021/12/31 00:21:56;;;;;;;8.40;4.73;;;10.90;99.90;;;;;;5094000;28;20209;-78
2021/12/31 00:24:25;;;;;;;7.60;5.30;;;10.90;99.90;;;;;;5094041;28;20204;-77
2021/12/31 00:26:52;;;;;;;9.73;5.40;;;10.90;99.90;;;;;;5093169;28;20195;-78
2021/12/31 00:29:19;;;;;;;10.83;5.53;;;10.90;99.90;;;;;;5093634;28;20194;-77
2021/12/31 00:31:48;;;;;;;9.80;5.30;;;10.90;99.90;;;;;;5093368;28;20192;-77
2021/12/31 00:34:15;;;;;;;8.13;4.60;;;11.00;99.90;;;;;;5093540;28;20663;-78
2021/12/31 00:36:44;;;;;;;10.40;6.07;;;11.00;99.90;;;;;;5093460;28;20273;-77
2021/12/31 00:39:12;;;;;;;11.17;5.87;;;11.00;99.90;;;;;;5093851;28;20199;-78
2021/12/31 00:41:39;;;;;;;9.57;5.87;;;11.00;99.90;;;;;;5093150;28;20660;-78
2021/12/31 00:44:06;;;;;;;9.93;7.40;;;11.00;99.90;;;;;;5093393;28;20196;-77
2021/12/31 00:46:34;;;;;;;8.40;6.63;;;11.00;99.90;;;;;;5093103;28;20560;-78
2021/12/31 00:49:03;;;;;;;8.50;5.70;;;11.00;99.90;;;;;;5093056;28;20712;-78
2021/12/31 00:51:31;;;;;;;9.70;5.70;;;11.00;99.90;;;;;;5093317;28;20203;-77
2021/12/31 00:53:58;;;;;;;6.30;4.60;;;11.00;99.90;;;;;;5093110;28;20277;-77
2021/12/31 00:56:25;;;;;;;8.73;5.30;;;11.00;99.90;;;;;;5093196;28;20265;-77
2021/12/31 00:58:52;;;;;;;9.37;6.03;;;11.00;99.90;;;;;;5093042;28;20663;-78
2021/12/31 01:01:21;;;;;;;7.30;4.77;;;11.10;99.90;;;;;;5092893;28;20656;-77
2021/12/31 01:03:49;;;;;;;9.87;6.20;;;11.10;99.90;;;;;;5093074;28;20312;-78
2021/12/31 01:06:18;;;;;;;10.57;6.83;;;11.10;99.90;;;;;;5092390;28;20200;-77
2021/12/31 01:08:45;;;;;;;10.10;6.77;;;11.10;99.90;;;;;;5093031;28;20249;-78
2021/12/31 01:11:12;;;;;;;9.33;5.97;;;11.10;99.90;;;;;;5092995;28;20223;-78
2021/12/31 01:13:51;;;;;;;9.30;6.20;;;11.10;99.90;;;;;;5092621;28;20317;-77
2021/12/31 01:16:20;;;;;;;10.57;6.07;;;11.10;99.90;;;;;;5092724;28;20782;-78
2021/12/31 01:21:33;;;;;;;7.23;5.20;;;11.00;99.90;;;;;;5092639;28;20262;-77
2021/12/31 01:24:02;;;;;;;10.00;4.33;;;11.10;99.90;;;;;;5092922;28;20205;-78
2021/12/31 01:26:30;;;;;;;18.87;6.20;;;11.10;99.90;;;;;;5092158;28;21024;-77
2021/12/31 01:28:57;;;;;;;9.67;5.93;;;11.10;99.90;;;;;;5092934;28;20195;-78
2021/12/31 01:31:24;;;;;;;9.23;6.13;;;11.00;99.90;;;;;;5092748;28;20241;-78
2021/12/31 01:33:51;;;;;;;7.47;5.60;;;11.10;99.90;;;;;;5092621;28;20199;-77
2021/12/31 01:36:18;;;;;;;7.27;5.60;;;11.00;99.90;;;;;;5092296;28;20208;-78
2021/12/31 01:38:46;;;;;;;8.77;5.77;;;11.10;99.90;;;;;;5092303;28;20656;-78
2021/12/31 01:41:13;;;;;;;7.13;5.17;;;11.10;99.90;;;;;;5092289;28;20207;-77
2021/12/31 01:43:41;;;;;;;7.97;5.13;;;11.00;99.90;;;;;;5092291;28;20192;-78
2021/12/31 01:46:11;;;;;;;6.80;5.00;;;11.10;99.90;;;;;;5092649;28;20244;-77
2021/12/31 01:48:59;;;;;;;8.03;4.90;;;11.10;99.90;;;;;;5092235;28;20198;-77
2021/12/31 01:51:26;;;;;;;7.47;6.63;;;11.10;99.90;;;;;;5091695;28;20272;-77
2021/12/31 01:53:54;;;;;;;6.37;4.90;;;11.10;99.90;;;;;;5092273;28;20244;-77
2021/12/31 01:56:22;;;;;;;6.60;4.87;;;11.10;99.90;;;;;;5092188;28;20230;-77
2021/12/31 01:58:54;;;;;;;7.70;4.60;;;11.10;99.90;;;;;;5092114;28;20192;-78
2021/12/31 02:01:23;;;;;;;5.10;4.30;;;11.10;99.90;;;;;;5091884;28;20605;-78
2021/12/31 02:03:51;;;;;;;5.87;4.93;;;11.10;99.90;;;;;;5092342;28;20250;-77
2021/12/31 02:06:18;;;;;;;8.13;4.67;;;11.10;99.90;;;;;;5092029;28;20635;-78
2021/12/31 02:08:45;;;;;;;5.63;4.43;;;11.10;99.90;;;;;;5092406;28;20324;-78
2021/12/31 02:11:16;;;;;;;7.07;5.60;;;11.10;99.90;;;;;;5092139;28;20252;-77
2021/12/31 02:13:43;;;;;;;7.90;4.17;;;11.10;99.90;;;;;;5071814;28;20641;-77
2021/12/31 02:16:10;;;;;;;6.90;5.17;;;11.20;99.90;;;;;;5071619;28;20253;-77
2021/12/31 02:18:37;;;;;;;7.43;5.20;;;11.10;99.90;;;;;;5072050;28;20269;-77
2021/12/31 02:21:10;;;;;;;6.27;5.20;;;11.20;99.90;;;;;;5071671;28;20647;-77
2021/12/31 02:23:43;;;;;;;5.03;3.57;;;11.20;99.90;;;;;;5090750;28;20648;-78
2021/12/31 02:26:10;;;;;;;3.83;3.43;;;11.20;99.90;;;;;;5091972;28;20181;-78
2021/12/31 02:28:38;;;;;;;4.27;3.10;;;11.20;99.90;;;;;;5091811;28;20194;-78
2021/12/31 02:31:05;;;;;;;5.00;3.40;;;11.20;99.90;;;;;;5093399;28;20188;-78
2021/12/31 02:33:32;;;;;;;4.30;3.60;;;11.20;99.90;;;;;;5095949;28;20201;-77
2021/12/31 02:36:00;;;;;;;5.77;2.90;;;11.10;99.90;;;;;;5096198;28;20219;-77
2021/12/31 02:38:28;;;;;;;4.40;2.27;;;11.10;99.90;;;;;;5095866;28;20196;-78
2021/12/31 02:40:56;;;;;;;4.17;3.20;;;11.10;99.90;;;;;;5095338;28;20235;-77
2021/12/31 02:43:23;;;;;;;5.03;3.60;;;11.20;99.90;;;;;;5095522;28;20596;-77
2021/12/31 02:45:50;;;;;;;4.87;3.37;;;11.10;99.90;;;;;;5095722;28;20198;-77
2021/12/31 02:48:24;;;;;;;3.73;2.70;;;11.20;99.90;;;;;;5095407;28;20725;-77
2021/12/31 02:50:53;;;;;;;4.63;3.20;;;11.20;99.90;;;;;;5095429;28;20277;-77
2021/12/31 02:53:25;;;;;;;4.27;3.10;;;11.20;99.90;;;;;;5095575;28;20193;-78
2021/12/31 02:56:00;;;;;;;5.10;3.93;;;11.20;99.90;;;;;;5095767;28;20237;-78
2021/12/31 02:58:29;;;;;;;6.30;3.50;;;11.20;99.90;;;;;;5095398;28;20244;-78
2021/12/31 03:00:56;;;;;;;4.93;3.43;;;11.20;99.90;;;;;;5095495;28;20191;-78
2021/12/31 03:03:24;;;;;;;3.30;3.00;;;11.20;99.90;;;;;;5095064;28;20248;-78
2021/12/31 03:05:53;;;;;;;7.05;3.10;;;11.10;99.90;;;;;;5095361;28;20208;-78
2021/12/31 03:08:22;;;;;;;8.07;4.07;;;11.20;99.90;;;;;;5081020;28;20291;-78
2021/12/31 03:10:50;;;;;;;7.80;5.20;;;11.20;99.90;;;;;;5095210;28;20203;-78
2021/12/31 03:13:19;;;;;;;8.67;4.57;;;11.20;99.90;;;;;;5094892;28;20249;-77
2021/12/31 03:15:46;;;;;;;7.13;4.80;;;11.20;99.90;;;;;;5094707;28;20685;-78
2021/12/31 03:18:15;;;;;;;10.90;6.07;;;11.20;99.90;;;;;;5094484;28;20245;-78
2021/12/31 03:20:43;;;;;;;7.80;4.27;;;11.20;99.90;;;;;;5095020;28;20286;-77
2021/12/31 03:23:10;;;;;;;12.27;6.00;;;11.20;99.90;;;;;;5095079;28;20193;-78
2021/12/31 03:25:38;;;;;;;8.33;4.37;;;11.20;99.90;;;;;;5094990;28;20560;-78
2021/12/31 03:28:05;;;;;;;5.63;4.30;;;11.20;99.90;;;;;;5095171;28;20601;-77
2021/12/31 03:30:34;;;;;;;7.97;5.27;;;11.20;99.90;;;;;;5094522;28;20271;-77
2021/12/31 03:33:01;;;;;;;8.60;5.43;;;11.20;99.90;;;;;;5094795;28;20555;-78
2021/12/31 03:35:27;;;;;;;6.73;4.70;;;11.20;99.90;;;;;;5094817;28;20216;-78
2021/12/31 03:37:55;;;;;;;10.60;6.53;;;11.30;99.90;;;;;;5094361;28;20519;-78
2021/12/31 03:40:23;;;;;;;10.03;5.07;;;11.30;99.90;;;;;;5094010;28;20668;-77
2021/12/31 03:42:50;;;;;;;8.63;4.70;;;11.30;99.90;;;;;;5094592;28;20592;-77
2021/12/31 03:45:17;;;;;;;8.97;5.07;;;11.30;99.90;;;;;;5094240;28;20562;-77
2021/12/31 03:47:45;;;;;;;9.17;5.10;;;11.30;99.90;;;;;;5094323;28;20276;-77
2021/12/31 03:50:12;;;;;;;6.43;4.00;;;11.30;99.90;;;;;;5094500;28;20192;-76
2021/12/31 03:52:40;;;;;;;5.90;3.93;;;11.30;99.90;;;;;;5094702;28;20250;-78
2021/12/31 03:55:08;;;;;;;10.30;5.50;;;11.30;99.90;;;;;;5094473;28;20224;-77
2021/12/31 03:57:35;;;;;;;10.63;7.00;;;11.40;99.90;;;;;;5093974;28;20184;-77
2021/12/31 04:00:02;;;;;;;7.63;4.00;;;11.30;99.90;;;;;;5094316;28;20249;-78
2021/12/31 04:02:29;;;;;;;3.57;2.00;;;11.40;99.90;;;;;;5094229;28;20196;-78
2021/12/31 04:04:57;;;;;;;7.27;5.27;;;11.30;99.90;;;;;;5093841;28;20201;-78
2021/12/31 04:07:24;;;;;;;14.07;10.53;;;11.30;99.90;;;;;;5093625;28;20203;-77
2021/12/31 04:09:51;;;;;;;6.97;4.17;;;11.40;99.90;;;;;;5094104;28;20325;-77
2021/12/31 04:12:18;;;;;;;4.43;3.13;;;11.30;99.90;;;;;;5094063;28;20192;-78
2021/12/31 04:14:45;;;;;;;5.43;2.87;;;11.40;99.90;;;;;;5094021;28;20201;-78
2021/12/31 04:17:12;;;;;;;5.13;2.83;;;11.40;99.90;;;;;;5093646;28;20208;-77
2021/12/31 04:19:41;;;;;;;175.23;40.93;;;11.40;99.90;;;;;;5093873;28;20191;-78
2021/12/31 04:22:12;;;;;;;3.83;2.73;;;11.40;99.90;;;;;;5094208;28;20197;-78
2021/12/31 04:24:53;;;;;;;151.03;21.93;;;11.40;99.90;;;;;;5094252;28;20181;-78
2021/12/31 04:27:21;;;;;;;250.27;54.80;;;11.40;99.90;;;;;;5093496;28;20195;-78
2021/12/31 04:29:52;;;;;;;3.60;2.80;;;11.40;99.90;;;;;;5093260;28;20648;-77
2021/12/31 04:32:21;;;;;;;3.03;2.40;;;11.40;99.90;;;;;;5093587;28;20631;-77
2021/12/31 04:34:49;;;;;;;4.70;3.10;;;11.50;99.90;;;;;;5093683;28;20196;-77
2021/12/31 04:37:17;;;;;;;5.43;4.93;;;11.50;99.90;;;;;;5093178;28;20222;-77
2021/12/31 04:39:44;;;;;;;6.30;4.30;;;11.50;99.90;;;;;;5093585;28;20257;-78
2021/12/31 04:42:12;;;;;;;6.07;4.30;;;11.50;99.90;;;;;;5093400;28;20616;-78
2021/12/31 04:44:40;;;;;;;6.03;4.10;;;11.50;99.90;;;;;;5093503;28;20191;-78
2021/12/31 04:47:07;;;;;;;6.43;5.27;;;11.50;99.90;;;;;;5093471;28;20245;-77
2021/12/31 04:49:34;;;;;;;6.03;4.00;;;11.60;99.90;;;;;;5093077;28;20675;-78
2021/12/31 04:52:01;;;;;;;5.10;3.00;;;11.50;99.90;;;;;;5093329;28;20198;-78
2021/12/31 04:54:29;;;;;;;4.13;2.93;;;11.60;99.90;;;;;;5091994;28;20253;-78
2021/12/31 04:56:58;;;;;;;5.10;4.60;;;11.60;99.90;;;;;;5093179;28;20222;-78
2021/12/31 04:59:25;;;;;;;4.77;2.60;;;11.60;99.90;;;;;;5092862;28;20720;-79
2021/12/31 05:01:52;;;;;;;4.27;3.00;;;11.60;99.90;;;;;;5093247;28;20549;-80
2021/12/31 05:04:19;;;;;;;4.33;3.93;;;11.60;99.90;;;;;;5092466;28;20648;-78
2021/12/31 05:06:48;;;;;;;3.80;2.57;;;11.60;99.90;;;;;;5093217;28;20261;-78
2021/12/31 05:09:15;;;;;;;4.23;3.70;;;11.60;99.90;;;;;;5092996;28;20604;-78
2021/12/31 05:11:44;;;;;;;4.33;3.30;;;11.60;99.90;;;;;;5093076;28;20194;-78
2021/12/31 05:14:11;;;;;;;4.57;3.80;;;11.60;99.90;;;;;;5092605;28;20247;-78
2021/12/31 05:16:38;;;;;;;5.50;3.57;;;11.60;99.90;;;;;;5092546;28;20616;-78
2021/12/31 05:19:06;;;;;;;4.85;2.90;;;11.60;99.90;;;;;;5092601;28;20197;-78
2021/12/31 05:21:33;;;;;;;5.43;4.13;;;11.60;99.90;;;;;;5092551;28;20656;-78
2021/12/31 05:24:00;;;;;;;7.77;4.53;;;11.70;99.90;;;;;;5092212;28;20728;-78
2021/12/31 05:26:27;;;;;;;6.47;4.43;;;11.70;99.90;;;;;;5092502;28;20540;-77
2021/12/31 05:28:55;;;;;;;;;;;11.70;99.90;;;;;;5092925;28;20322;-78
2021/12/31 05:31:23;;;;;;;5.70;3.70;;;11.70;99.90;;;;;;5092749;28;19920;-78
2021/12/31 05:33:50;;;;;;;5.93;4.33;;;11.70;99.90;;;;;;5091854;28;20719;-78
2021/12/31 05:36:17;;;;;;;4.37;3.30;;;11.70;99.90;;;;;;5092383;28;20216;-79
2021/12/31 05:38:44;;;;;;;4.87;3.33;;;11.70;99.90;;;;;;5092980;28;20205;-78
2021/12/31 05:41:12;;;;;;;8.00;5.30;;;11.70;99.90;;;;;;5092261;28;20200;-77
2021/12/31 05:43:39;;;;;;;7.10;4.17;;;11.80;99.90;;;;;;5092450;28;20195;-78
2021/12/31 05:46:07;;;;;;;7.10;4.57;;;11.80;99.90;;;;;;5092205;28;20202;-78
2021/12/31 05:48:34;;;;;;;10.70;4.43;;;11.80;99.90;;;;;;5092562;28;20193;-79
2021/12/31 05:51:02;;;;;;;6.97;4.43;;;11.80;99.90;;;;;;5092515;28;20249;-78
2021/12/31 05:53:28;;;;;;;8.20;4.70;;;11.80;99.90;;;;;;5092152;28;20186;-78
2021/12/31 05:55:55;;;;;;;6.13;4.17;;;11.80;99.90;;;;;;5092512;28;20695;-78
2021/12/31 05:58:22;;;;;;;9.03;4.07;;;11.80;99.90;;;;;;5092167;28;20648;-78
2021/12/31 06:00:49;;;;;;;7.90;4.20;;;11.80;99.90;;;;;;5092106;28;20239;-78
2021/12/31 06:03:18;;;;;;;8.27;4.73;;;11.80;99.90;;;;;;5092328;28;20237;-78
2021/12/31 06:05:45;;;;;;;6.60;4.97;;;11.80;99.90;;;;;;5093488;28;20560;-78
2021/12/31 06:08:11;;;;;;;10.80;4.70;;;11.80;99.90;;;;;;5096211;28;20223;-77
2021/12/31 06:10:41;;;;;;;9.63;5.37;;;11.80;99.90;;;;;;5096511;28;20159;-78
2021/12/31 06:13:08;;;;;;;9.90;5.50;;;11.80;99.90;;;;;;5095713;28;20204;-78
2021/12/31 06:15:35;;;;;;;7.43;5.77;;;11.80;99.90;;;;;;5096076;28;20652;-78
2021/12/31 06:18:02;;;;;;;9.17;4.63;;;11.80;99.90;;;;;;5096165;28;20274;-78
2021/12/31 06:20:30;;;;;;;;;;;11.80;99.90;;;;;;5096036;28;20199;-78
2021/12/31 06:22:58;;;;;;;9.43;4.77;;;11.80;99.90;;;;;;5095668;28;20229;-77
2021/12/31 06:25:26;;;;;;;8.87;4.60;;;11.80;99.90;;;;;;5096260;28;20239;-78
2021/12/31 06:27:53;;;;;;;9.33;5.37;;;11.80;99.90;;;;;;5096219;28;20285;-78
2021/12/31 06:30:20;;;;;;;10.30;5.87;;;11.80;99.90;;;;;;5096326;28;20189;-78
2021/12/31 06:32:47;;;;;;;10.07;5.50;;;11.80;99.90;;;;;;5095890;28;20186;-78
2021/12/31 06:35:14;;;;;;;7.30;4.80;;;11.80;99.90;;;;;;5095620;28;20198;-78
2021/12/31 06:37:42;;;;;;;8.80;5.97;;;11.80;99.90;;;;;;5095952;28;20225;-78
2021/12/31 06:40:11;;;;;;;8.57;5.00;;;11.80;99.90;;;;;;5095532;28;20193;-78
2021/12/31 06:42:39;;;;;;;11.37;6.90;;;11.70;99.90;;;;;;5095799;28;20241;-78
2021/12/31 06:45:07;;;;;;;12.33;8.30;;;11.80;99.90;;;;;;5095464;28;20596;-78
2021/12/31 06:47:34;;;;;;;27.03;12.07;;;11.80;99.90;;;;;;5095810;28;20196;-78
2021/12/31 06:50:01;;;;;;;19.73;9.50;;;11.80;99.90;;;;;;5095006;28;20196;-78
2021/12/31 06:52:28;;;;;;;26.37;13.20;;;11.80;99.90;;;;;;5095301;28;20201;-78
2021/12/31 06:54:56;;;;;;;27.27;11.60;;;11.80;99.90;;;;;;5095438;28;20575;-78
2021/12/31 06:57:24;;;;;;;27.57;11.33;;;11.80;99.90;;;;;;5095161;28;20215;-78
2021/12/31 06:59:51;;;;;;;68.07;24.63;;;11.80;99.90;;;;;;5095438;28;20237;-78
2021/12/31 07:02:18;;;;;;;77.55;34.10;;;11.70;99.90;;;;;;5094579;28;20667;-78
2021/12/31 07:04:45;;;;;;;57.20;24.00;;;11.80;99.90;;;;;;5095200;28;20633;-77
2021/12/31 07:07:12;;;;;;;56.60;25.10;;;11.70;99.90;;;;;;5094884;28;20210;-77
2021/12/31 07:09:42;;;;;;;82.80;33.17;;;11.70;99.90;;;;;;5095106;28;20191;-77
2021/12/31 07:12:11;;;;;;;70.90;31.20;;;11.70;99.90;;;;;;5094622;28;20633;-78
2021/12/31 07:14:38;;;;;;;50.80;22.10;;;11.80;99.90;;;;;;5094975;28;20682;-78
2021/12/31 07:17:05;;;;;;;73.60;36.30;;;11.70;99.90;;;;;;5094329;28;20570;-78
2021/12/31 07:19:32;;;;;;;75.10;30.40;;;11.70;99.90;;;;;;5094993;28;20109;-78
2021/12/31 07:22:00;;;;;;;25.57;15.63;;;11.80;99.90;;;;;;5094521;28;20204;-78
2021/12/31 07:24:27;;;;;;;42.23;26.23;;;11.70;99.90;;;;;;5095144;28;20250;-77
2021/12/31 07:26:54;;;;;;;35.00;21.60;;;11.70;99.90;;;;;;5095180;28;20193;-77
2021/12/31 07:29:23;;;;;;;35.53;20.47;;;11.70;99.90;;;;;;5094923;28;20244;-78
2021/12/31 07:31:50;;;;;;;24.87;12.77;;;11.70;99.90;;;;;;5094787;28;20228;-77
2021/12/31 07:34:17;;;;;;;34.37;16.10;;;11.80;99.90;;;;;;5094556;28;20660;-78
2021/12/31 07:36:44;;;;;;;33.10;17.77;;;11.70;99.90;;;;;;5094449;28;20214;-78
2021/12/31 07:39:13;;;;;;;20.60;11.23;;;11.80;99.90;;;;;;5094439;28;20190;-78
2021/12/31 07:41:40;;;;;;;274.87;101.80;;;11.70;99.90;;;;;;5094754;28;20202;-78
2021/12/31 07:44:07;;;;;;;1999.90;999.90;;;11.70;99.90;;;;;;5094305;28;20198;-78
2021/12/31 07:46:36;;;;;;;1999.90;999.90;;;11.70;99.90;;;;;;5094598;28;20195;-79
2021/12/31 07:49:03;;;;;;;1999.90;999.90;;;11.80;99.90;;;;;;5094031;28;20197;-78
2021/12/31 07:51:31;;;;;;;1999.90;999.90;;;11.80;99.90;;;;;;5094632;28;20243;-78
2021/12/31 07:53:58;;;;;;;110.93;99.40;;;11.80;99.90;;;;;;5093994;28;20312;-78
2021/12/31 07:56:25;;;;;;;60.50;38.80;;;11.80;99.90;;;;;;5094660;28;20182;-78
2021/12/31 07:58:52;;;;;;;71.70;44.23;;;11.80;99.90;;;;;;5094166;28;20602;-77
2021/12/31 08:01:19;;;;;;;30.03;19.13;;;11.80;99.90;;;;;;5093858;28;20201;-77
2021/12/31 08:03:47;;;;;;;40.07;22.37;;;11.80;99.90;;;;;;5093706;28;20194;-77
2021/12/31 08:06:14;;;;;;;132.67;84.77;;;11.80;99.90;;;;;;5093935;28;20247;-78
2021/12/31 08:08:41;;;;;;;85.33;47.67;;;11.80;99.90;;;;;;5094253;28;20264;-78
2021/12/31 08:11:08;;;;;;;40.97;24.03;;;11.80;99.90;;;;;;5093912;28;20244;-78
2021/12/31 08:13:35;;;;;;;40.43;24.70;;;11.80;99.90;;;;;;5100909;28;20717;-77
2021/12/31 08:16:02;;;;;;;27.80;21.03;;;11.80;99.90;;;;;;5094010;28;20260;-78
2021/12/31 08:18:29;;;;;;;34.73;21.00;;;11.80;99.90;;;;;;5093570;28;20225;-78
2021/12/31 08:20:57;;;;;;;24.70;16.33;;;11.80;99.90;;;;;;5093582;28;20533;-78
2021/12/31 08:23:24;;;;;;;29.63;17.57;;;11.80;99.90;;;;;;5093878;28;20201;-78
2021/12/31 08:25:52;;;;;;;17.23;12.47;;;11.80;99.90;;;;;;5093805;28;20198;-78
2021/12/31 08:28:20;;;;;;;32.63;20.40;;;11.80;99.90;;;;;;5092554;28;20236;-77
2021/12/31 08:30:47;;;;;;;22.37;16.40;;;11.80;99.90;;;;;;5080930;28;20263;-79
2021/12/31 08:33:14;;;;;;;22.37;16.23;;;11.80;99.90;;;;;;5072468;28;20653;-79
2021/12/31 08:35:41;;;;;;;32.77;21.00;;;11.80;99.90;;;;;;5072460;28;20202;-79
2021/12/31 08:38:09;;;;;;;31.73;22.53;;;11.90;99.90;;;;;;5077847;28;20264;-79
2021/12/31 08:40:37;;;;;;;27.50;16.20;;;11.80;99.90;;;;;;5092953;28;20203;-78
2021/12/31 08:43:04;;;;;;;43.40;26.33;;;11.90;99.90;;;;;;5093124;28;20648;-78
2021/12/31 08:45:33;;;;;;;41.43;24.60;;;11.90;99.90;;;;;;5093423;28;20197;-79
2021/12/31 08:48:01;;;;;;;18.53;14.37;;;11.90;99.90;;;;;;5093091;28;20195;-78
2021/12/31 08:50:29;;;;;;;27.83;17.97;;;11.90;99.90;;;;;;5093240;28;20240;-78
2021/12/31 08:52:56;;;;;;;28.77;17.37;;;11.90;99.90;;;;;;5093512;28;20194;-78
2021/12/31 08:55:25;;;;;;;28.30;19.23;;;12.00;99.90;;;;;;5093269;28;20229;-78
2021/12/31 08:57:52;;;;;;;30.07;19.10;;;12.00;99.90;;;;;;5092545;28;20210;-78
2021/12/31 09:00:20;;;;;;;27.47;19.27;;;12.10;99.90;;;;;;5092866;28;20202;-78
2021/12/31 09:02:49;;;;;;;16.40;12.47;;;12.10;99.90;;;;;;5092953;28;20582;-78
2021/12/31 09:05:17;;;;;;;23.37;18.17;;;12.10;99.90;;;;;;5092757;28;20201;-77
2021/12/31 09:07:45;;;;;;;24.50;17.87;;;12.10;99.90;;;;;;5092771;28;20250;-78
2021/12/31 09:10:12;;;;;;;23.30;15.50;;;12.10;99.90;;;;;;5092893;28;20208;-78
2021/12/31 09:12:44;;;;;;;21.07;14.20;;;12.10;99.90;;;;;;5092705;28;20182;-77
2021/12/31 09:15:13;;;;;;;20.23;13.47;;;12.10;99.90;;;;;;5093016;28;20214;-78
2021/12/31 09:17:41;;;;;;;18.73;13.33;;;12.10;99.90;;;;;;5092144;28;20295;-78
2021/12/31 09:20:09;;;;;;;19.43;14.67;;;12.10;99.90;;;;;;5092907;28;20258;-79
2021/12/31 09:22:36;;;;;;;20.20;15.63;;;12.10;99.90;;;;;;5092909;28;20210;-79
2021/12/31 09:25:03;;;;;;;19.83;14.37;;;12.10;99.90;;;;;;5092476;28;20664;-79
2021/12/31 09:27:30;;;;;;;18.37;13.30;;;12.20;99.90;;;;;;5092404;28;20610;-78
2021/12/31 09:29:59;;;;;;;23.63;14.60;;;12.10;99.90;;;;;;5093101;28;20191;-78
2021/12/31 09:32:26;;;;;;;29.33;17.93;;;12.10;99.90;;;;;;5092727;28;20271;-79
2021/12/31 09:34:53;;;;;;;15.60;11.97;;;12.20;99.90;;;;;;5092450;28;20537;-79
2021/12/31 09:37:20;;;;;;;19.60;15.13;;;12.20;99.90;;;;;;5091928;28;20262;-78
2021/12/31 09:39:47;;;;;;;22.07;16.10;;;12.20;99.90;;;;;;5092071;28;20247;-78
2021/12/31 09:42:14;;;;;;;21.00;13.77;;;12.20;99.90;;;;;;5092297;28;20195;-78
2021/12/31 09:44:42;;;;;;;26.00;16.67;;;12.20;99.90;;;;;;5092172;28;20241;-79
2021/12/31 09:47:13;;;;;;;17.37;12.53;;;12.20;99.90;;;;;;5092582;28;20583;-78
2021/12/31 09:49:41;;;;;;;16.33;11.77;;;12.30;99.90;;;;;;5092352;28;20670;-79
2021/12/31 09:52:10;;;;;;;10.03;8.87;;;12.30;99.90;;;;;;5093335;28;20195;-79
2021/12/31 09:54:40;;;;;;;27.07;15.17;;;12.30;99.90;;;;;;5091978;28;20663;-79
2021/12/31 09:57:12;;;;;;;22.47;15.13;;;12.40;99.90;;;;;;5071931;28;20237;-79
2021/12/31 09:59:40;;;;;;;23.90;17.10;;;12.40;99.90;;;;;;5071971;28;20216;-79
2021/12/31 10:02:08;;;;;;;15.27;10.67;;;12.50;99.90;;;;;;5071974;28;20602;-79
2021/12/31 10:04:54;;;;;;;24.17;21.73;;;12.50;99.90;;;;;;5072245;28;20196;-80
2021/12/31 10:07:23;;;;;;;18.93;13.00;;;12.50;99.90;;;;;;5072149;28;20234;-78
2021/12/31 10:10:05;;;;;;;19.13;12.60;;;12.50;99.90;;;;;;5071778;28;20241;-79
2021/12/31 10:12:44;;;;;;;39.20;25.27;;;12.50;99.90;;;;;;5071840;28;20629;-79
2021/12/31 10:15:11;;;;;;;20.57;14.63;;;12.50;99.90;;;;;;5075957;28;20243;-79
2021/12/31 10:17:39;;;;;;;17.07;12.60;;;12.50;99.90;;;;;;5092024;28;20215;-79
2021/12/31 10:20:08;;;;;;;18.17;15.03;;;12.50;99.90;;;;;;5091851;28;20647;-79
2021/12/31 10:22:35;;;;;;;16.70;11.60;;;12.50;99.90;;;;;;5090135;28;20192;-79
2021/12/31 10:25:17;;;;;;;14.87;10.93;;;12.50;99.90;;;;;;5077328;28;20186;-78
2021/12/31 10:27:44;;;;;;;15.37;13.57;;;12.50;99.90;;;;;;5069966;28;20197;-78
2021/12/31 10:30:12;;;;;;;12.37;11.00;;;12.50;99.90;;;;;;5071658;28;20184;-78
2021/12/31 10:32:41;;;;;;;15.50;11.13;;;12.50;99.90;;;;;;5070101;28;20248;-79
2021/12/31 10:35:13;;;;;;;15.07;10.73;;;12.40;99.90;;;;;;5069918;28;20561;-78
2021/12/31 10:37:45;;;;;;;12.33;10.70;;;12.50;99.90;;;;;;5069760;28;20297;-79
2021/12/31 10:40:13;;;;;;;12.47;10.30;;;12.40;99.90;;;;;;5070040;28;20192;-78
2021/12/31 10:42:42;;;;;;;12.27;9.70;;;12.40;99.90;;;;;;5073820;28;20196;-79
2021/12/31 10:45:10;;;;;;;12.17;8.33;;;12.50;99.90;;;;;;5071723;28;20229;-79
2021/12/31 10:47:42;;;;;;;13.53;9.90;;;12.50;99.90;;;;;;5071487;28;20207;-79
2021/12/31 10:50:28;;;;;;;12.10;9.23;;;12.50;99.90;;;;;;5071803;28;20269;-79
2021/12/31 10:52:59;;;;;;;17.33;10.73;;;12.50;99.90;;;;;;5073651;28;20188;-79
2021/12/31 10:55:31;;;;;;;11.10;8.80;;;12.50;99.90;;;;;;5075452;28;20259;-79
2021/12/31 10:58:01;;;;;;;19.23;14.47;;;12.50;99.90;;;;;;5075249;28;20214;-77
2021/12/31 11:00:30;;;;;;;18.20;13.20;;;12.60;99.90;;;;;;5090710;28;20718;-79
2021/12/31 11:02:58;;;;;;;88.53;39.10;;;12.60;99.90;;;;;;5095436;28;20245;-79
2021/12/31 11:05:27;;;;;;;62.00;35.10;;;12.70;99.90;;;;;;5095367;28;20262;-79
2021/12/31 11:07:56;;;;;;;31.97;19.37;;;12.70;99.90;;;;;;5095316;28;20197;-79
2021/12/31 11:10:27;;;;;;;44.93;27.10;;;12.80;99.90;;;;;;5094692;28;21046;-79
2021/12/31 11:12:55;;;;;;;89.27;35.70;;;12.80;99.90;;;;;;5094989;28;20522;-79
2021/12/31 11:15:22;;;;;;;42.60;20.93;;;12.90;99.90;;;;;;5094837;28;20197;-79
2021/12/31 11:17:52;;;;;;;19.70;15.40;;;12.90;99.90;;;;;;5094789;28;20269;-78
2021/12/31 11:20:23;;;;;;;40.60;21.37;;;12.90;99.90;;;;;;5094762;28;20279;-79
2021/12/31 11:22:52;;;;;;;13.03;10.07;;;12.90;99.90;;;;;;5095223;28;20176;-79
2021/12/31 11:25:25;;;;;;;28.33;16.23;;;12.90;99.90;;;;;;5095064;28;20201;-79
2021/12/31 11:27:56;;;;;;;11.00;9.23;;;12.90;99.90;;;;;;5095037;28;20593;-79
2021/12/31 11:30:33;;;;;;;13.63;9.37;;;12.90;99.90;;;;;;5094562;28;20204;-79
2021/12/31 11:33:08;;;;;;;15.13;10.77;;;12.90;99.90;;;;;;5094832;28;20672;-79
2021/12/31 11:35:47;;;;;;;11.60;9.80;;;12.80;99.90;;;;;;5094723;28;20226;-79
2021/12/31 11:38:43;;;;;;;14.10;11.60;;;12.80;99.90;;;;;;5094351;28;20680;-79
2021/12/31 11:41:12;;;;;;;20.80;12.40;;;12.80;99.90;;;;;;5074282;28;20430;-78
2021/12/31 11:43:41;;;;;;;16.07;11.30;;;12.80;99.90;;;;;;5074141;28;20417;-78
2021/12/31 11:46:32;;;;;;;13.93;11.40;;;12.80;99.90;;;;;;5073998;28;20193;-78
2021/12/31 11:49:01;;;;;;;13.53;9.70;;;12.80;99.90;;;;;;5089970;28;20191;-78
2021/12/31 11:51:33;;;;;;;15.70;12.97;;;12.80;99.90;;;;;;5094248;28;20250;-79
2021/12/31 11:54:20;;;;;;;16.67;13.60;;;12.70;99.90;;;;;;5093982;28;20673;-78
2021/12/31 11:57:05;;;;;;;24.27;17.70;;;12.80;99.90;;;;;;5094496;28;20191;-78
2021/12/31 11:59:50;;;;;;;20.70;13.20;;;12.80;99.90;;;;;;5094459;28;20204;-78
2021/12/31 12:02:23;;;;;;;11.43;8.53;;;12.70;99.90;;;;;;5094394;28;20177;-78
2021/12/31 12:05:11;;;;;;;19.83;13.30;;;12.70;99.90;;;;;;5094285;28;20184;-78
2021/12/31 12:07:41;;;;;;;16.93;11.87;;;12.70;99.90;;;;;;5093656;28;20176;-78
2021/12/31 12:10:15;;;;;;;16.97;12.37;;;12.70;99.90;;;;;;5094166;28;20635;-79
2021/12/31 12:12:48;;;;;;;14.17;9.60;;;12.70;99.90;;;;;;5094186;28;20180;-79
2021/12/31 12:15:41;;;;;;;14.60;10.77;;;12.70;99.90;;;;;;5094076;28;20211;-78
2021/12/31 12:18:09;;;;;;;9.07;7.23;;;12.60;99.90;;;;;;5079406;28;20214;-78
2021/12/31 12:20:41;;;;;;;19.27;11.47;;;12.60;99.90;;;;;;5094181;28;20192;-79
2021/12/31 12:23:20;;;;;;;12.50;9.73;;;12.60;99.90;;;;;;5093642;28;20699;-79
2021/12/31 12:25:48;;;;;;;30.47;18.33;;;12.60;99.90;;;;;;5093602;28;20184;-78
2021/12/31 12:28:20;;;;;;;13.00;9.20;;;12.60;99.90;;;;;;5093062;28;20188;-78
2021/12/31 12:33:32;;;;;;;10.63;8.50;;;12.60;99.90;;;;;;5090302;28;20219;-79
2021/12/31 12:36:00;;;;;;;15.43;9.43;;;12.60;99.90;;;;;;5093095;28;20266;-79
2021/12/31 12:38:33;;;;;;;15.90;10.30;;;12.60;99.90;;;;;;5091762;28;20304;-79
2021/12/31 12:41:10;;;;;;;9.33;7.07;;;12.60;99.90;;;;;;5092272;28;20186;-78
2021/12/31 12:43:46;;;;;;;12.30;7.90;;;12.60;99.90;;;;;;5093382;28;20234;-79
2021/12/31 12:46:17;;;;;;;10.50;7.50;;;12.60;99.90;;;;;;5093257;28;20579;-79
2021/12/31 12:48:47;;;;;;;9.67;6.50;;;12.60;99.90;;;;;;5093290;28;20188;-79
2021/12/31 12:51:16;;;;;;;10.53;6.43;;;12.60;99.90;;;;;;5093033;28;20227;-79
2021/12/31 12:53:45;;;;;;;9.43;6.93;;;12.60;99.90;;;;;;5092827;28;20287;-78